sensor_id;sensor_type;location;lat;lon;timestamp;pressure;altitude;pressure_sealevel;temperature;humidity
45793;BME280;31495;42.740;22.908;2022-11-20T00:00:33;92432.47;;;14.58;70.88
45793;BME280;31495;42.740;22.908;2022-11-20T00:01:33;92432.44;;;14.53;71.06
45793;BME280;31495;42.740;22.908;2022-11-20T00:02:32;92437.47;;;14.60;71.13
45793;BME280;31495;42.740;22.908;2022-11-20T00:03:32;92441.09;;;14.64;71.02
45793;BME280;31495;42.740;22.908;2022-11-20T00:04:32;92429.91;;;14.63;70.80
45793;BME280;31495;42.740;22.908;2022-11-20T00:05:32;92440.06;;;14.60;70.74
45793;BME280;31495;42.740;22.908;2022-11-20T00:06:32;92413.09;;;14.39;70.36
45793;BME280;31495;42.740;22.908;2022-11-20T00:07:31;92407.63;;;14.40;70.33
45793;BME280;31495;42.740;22.908;2022-11-20T00:08:31;92420.69;;;14.50;70.78
45793;BME280;31495;42.740;22.908;2022-11-20T00:09:30;92425.94;;;14.56;70.70
45793;BME280;31495;42.740;22.908;2022-11-20T00:10:30;92431.94;;;14.56;70.75
45793;BME280;31495;42.740;22.908;2022-11-20T00:11:30;92432.00;;;14.61;70.45
45793;BME280;31495;42.740;22.908;2022-11-20T00:12:31;92435.94;;;14.69;70.30
45793;BME280;31495;42.740;22.908;2022-11-20T00:13:30;92413.56;;;14.73;70.24
45793;BME280;31495;42.740;22.908;2022-11-20T00:14:30;92430.47;;;14.70;69.90
45793;BME280;31495;42.740;22.908;2022-11-20T00:15:29;92428.09;;;14.64;69.76
45793;BME280;31495;42.740;22.908;2022-11-20T00:16:31;92426.06;;;14.71;69.80
45793;BME280;31495;42.740;22.908;2022-11-20T00:17:31;92427.13;;;14.75;69.73
45793;BME280;31495;42.740;22.908;2022-11-20T00:18:32;92430.78;;;14.74;69.21
45793;BME280;31495;42.740;22.908;2022-11-20T00:19:32;92393.97;;;14.60;69.72
45793;BME280;31495;42.740;22.908;2022-11-20T00:20:31;92427.41;;;14.79;68.92
45793;BME280;31495;42.740;22.908;2022-11-20T00:21:31;92408.66;;;14.77;69.33
45793;BME280;31495;42.740;22.908;2022-11-20T00:22:31;92416.19;;;14.73;69.61
45793;BME280;31495;42.740;22.908;2022-11-20T00:23:30;92415.94;;;14.80;68.88
45793;BME280;31495;42.740;22.908;2022-11-20T00:24:29;92407.63;;;14.78;69.48
45793;BME280;31495;42.740;22.908;2022-11-20T00:25:29;92420.88;;;14.71;70.02
45793;BME280;31495;42.740;22.908;2022-11-20T00:26:28;92407.78;;;14.61;69.18
45793;BME280;31495;42.740;22.908;2022-11-20T00:27:28;92410.44;;;14.71;67.75
45793;BME280;31495;42.740;22.908;2022-11-20T00:28:27;92388.28;;;14.68;67.43
45793;BME280;31495;42.740;22.908;2022-11-20T00:29:27;92370.81;;;14.64;67.77
45793;BME280;31495;42.740;22.908;2022-11-20T00:30:26;92399.81;;;14.78;68.56
45793;BME280;31495;42.740;22.908;2022-11-20T00:31:26;92423.00;;;14.84;68.24
45793;BME280;31495;42.740;22.908;2022-11-20T00:32:26;92408.94;;;14.85;67.18
45793;BME280;31495;42.740;22.908;2022-11-20T00:33:27;92413.66;;;14.94;66.87
45793;BME280;31495;42.740;22.908;2022-11-20T00:34:27;92389.91;;;14.80;66.43
45793;BME280;31495;42.740;22.908;2022-11-20T00:35:26;92414.97;;;14.91;67.11
45793;BME280;31495;42.740;22.908;2022-11-20T00:36:27;92402.44;;;14.88;68.13
45793;BME280;31495;42.740;22.908;2022-11-20T00:37:27;92413.63;;;14.88;68.19
45793;BME280;31495;42.740;22.908;2022-11-20T00:38:26;92395.09;;;14.75;68.48
45793;BME280;31495;42.740;22.908;2022-11-20T00:39:26;92416.25;;;14.88;67.62
45793;BME280;31495;42.740;22.908;2022-11-20T00:40:25;92412.88;;;14.88;67.65
45793;BME280;31495;42.740;22.908;2022-11-20T00:41:26;92409.22;;;14.84;68.66
45793;BME280;31495;42.740;22.908;2022-11-20T00:42:26;92428.72;;;14.81;67.68
45793;BME280;31495;42.740;22.908;2022-11-20T00:43:26;92420.09;;;14.76;68.29
45793;BME280;31495;42.740;22.908;2022-11-20T00:44:26;92401.09;;;14.75;68.38
45793;BME280;31495;42.740;22.908;2022-11-20T00:45:25;92385.63;;;14.58;68.51
45793;BME280;31495;42.740;22.908;2022-11-20T00:46:26;92423.22;;;14.73;68.90
45793;BME280;31495;42.740;22.908;2022-11-20T00:47:26;92410.63;;;14.59;68.56
45793;BME280;31495;42.740;22.908;2022-11-20T00:48:26;92430.44;;;14.65;67.67
45793;BME280;31495;42.740;22.908;2022-11-20T00:49:25;92406.75;;;14.62;68.09
45793;BME280;31495;42.740;22.908;2022-11-20T00:50:25;92412.97;;;14.61;67.95
45793;BME280;31495;42.740;22.908;2022-11-20T00:51:26;92425.50;;;14.69;68.32
45793;BME280;31495;42.740;22.908;2022-11-20T00:52:25;92434.91;;;14.70;68.00
45793;BME280;31495;42.740;22.908;2022-11-20T00:53:25;92418.81;;;14.78;68.29
45793;BME280;31495;42.740;22.908;2022-11-20T00:54:25;92424.75;;;14.74;68.16
45793;BME280;31495;42.740;22.908;2022-11-20T00:55:24;92395.50;;;14.56;68.84
45793;BME280;31495;42.740;22.908;2022-11-20T00:56:24;92413.81;;;14.72;69.03
45793;BME280;31495;42.740;22.908;2022-11-20T00:57:23;92419.84;;;14.77;69.04
45793;BME280;31495;42.740;22.908;2022-11-20T00:58:23;92409.13;;;14.68;69.62
45793;BME280;31495;42.740;22.908;2022-11-20T00:59:23;92406.16;;;14.55;70.05
45793;BME280;31495;42.740;22.908;2022-11-20T01:00:23;92408.56;;;14.61;69.62
45793;BME280;31495;42.740;22.908;2022-11-20T01:01:24;92399.19;;;14.60;69.53
45793;BME280;31495;42.740;22.908;2022-11-20T01:02:24;92409.88;;;14.64;70.07
45793;BME280;31495;42.740;22.908;2022-11-20T01:03:23;92389.47;;;14.50;70.63
45793;BME280;31495;42.740;22.908;2022-11-20T01:04:23;92403.56;;;14.55;70.51
45793;BME280;31495;42.740;22.908;2022-11-20T01:05:22;92410.38;;;14.61;71.11
45793;BME280;31495;42.740;22.908;2022-11-20T01:06:24;92410.38;;;14.61;70.97
45793;BME280;31495;42.740;22.908;2022-11-20T01:07:23;92412.41;;;14.59;70.61
45793;BME280;31495;42.740;22.908;2022-11-20T01:08:23;92412.72;;;14.62;70.44
45793;BME280;31495;42.740;22.908;2022-11-20T01:09:22;92394.66;;;14.50;70.46
45793;BME280;31495;42.740;22.908;2022-11-20T01:10:22;92396.50;;;14.50;70.54
45793;BME280;31495;42.740;22.908;2022-11-20T01:11:29;92392.56;;;14.47;70.93
45793;BME280;31495;42.740;22.908;2022-11-20T01:12:30;92404.06;;;14.51;70.98
45793;BME280;31495;42.740;22.908;2022-11-20T01:13:30;92412.88;;;14.50;71.25
45793;BME280;31495;42.740;22.908;2022-11-20T01:14:36;92400.94;;;14.49;71.17
45793;BME280;31495;42.740;22.908;2022-11-20T01:15:36;92406.44;;;14.58;71.49
45793;BME280;31495;42.740;22.908;2022-11-20T01:16:38;92378.16;;;14.34;71.86
45793;BME280;31495;42.740;22.908;2022-11-20T01:17:37;92381.59;;;14.40;71.98
45793;BME280;31495;42.740;22.908;2022-11-20T01:18:39;92386.81;;;14.40;72.62
45793;BME280;31495;42.740;22.908;2022-11-20T01:19:39;92378.97;;;14.35;72.53
45793;BME280;31495;42.740;22.908;2022-11-20T01:20:39;92375.31;;;14.36;72.42
45793;BME280;31495;42.740;22.908;2022-11-20T01:21:40;92392.81;;;14.46;72.64
45793;BME280;31495;42.740;22.908;2022-11-20T01:22:40;92400.66;;;14.51;72.63
45793;BME280;31495;42.740;22.908;2022-11-20T01:23:42;92392.03;;;14.45;72.46
45793;BME280;31495;42.740;22.908;2022-11-20T01:24:42;92396.16;;;14.41;72.41
45793;BME280;31495;42.740;22.908;2022-11-20T01:25:41;92396.75;;;14.48;72.61
45793;BME280;31495;42.740;22.908;2022-11-20T01:26:42;92400.97;;;14.55;72.44
45793;BME280;31495;42.740;22.908;2022-11-20T01:27:41;92402.22;;;14.52;72.04
45793;BME280;31495;42.740;22.908;2022-11-20T01:28:41;92395.44;;;14.51;71.63
45793;BME280;31495;42.740;22.908;2022-11-20T01:29:41;92399.63;;;14.52;71.89
45793;BME280;31495;42.740;22.908;2022-11-20T01:30:41;92402.25;;;14.57;71.91
45793;BME280;31495;42.740;22.908;2022-11-20T01:31:41;92378.03;;;14.51;72.65
45793;BME280;31495;42.740;22.908;2022-11-20T01:32:40;92374.03;;;14.33;72.84
45793;BME280;31495;42.740;22.908;2022-11-20T01:33:40;92366.72;;;14.30;72.52
45793;BME280;31495;42.740;22.908;2022-11-20T01:34:40;92394.66;;;14.50;72.35
45793;BME280;31495;42.740;22.908;2022-11-20T01:35:40;92370.94;;;14.42;72.80
45793;BME280;31495;42.740;22.908;2022-11-20T01:36:40;92383.50;;;14.55;72.54
45793;BME280;31495;42.740;22.908;2022-11-20T01:37:40;92387.44;;;14.58;73.02
45793;BME280;31495;42.740;22.908;2022-11-20T01:38:40;92394.44;;;14.57;72.95
45793;BME280;31495;42.740;22.908;2022-11-20T01:39:39;92385.91;;;14.62;72.53
45793;BME280;31495;42.740;22.908;2022-11-20T01:40:38;92387.75;;;14.61;72.84
45793;BME280;31495;42.740;22.908;2022-11-20T01:41:38;92387.75;;;14.61;72.88
45793;BME280;31495;42.740;22.908;2022-11-20T01:43:19;92378.03;;;14.51;73.13
45793;BME280;31495;42.740;22.908;2022-11-20T01:47:04;92395.50;;;14.56;73.35
45793;BME280;31495;42.740;22.908;2022-11-20T01:48:04;92385.09;;;14.56;73.15
45793;BME280;31495;42.740;22.908;2022-11-20T01:50:11;92397.06;;;14.57;73.96
45793;BME280;31495;42.740;22.908;2022-11-20T01:51:22;92391.28;;;14.50;74.14
45793;BME280;31495;42.740;22.908;2022-11-20T01:52:30;92380.31;;;14.43;74.46
45793;BME280;31495;42.740;22.908;2022-11-20T01:53:36;92373.03;;;14.40;74.56
45793;BME280;31495;42.740;22.908;2022-11-20T01:54:41;92382.19;;;14.52;74.13
45793;BME280;31495;42.740;22.908;2022-11-20T01:55:51;92373.06;;;14.45;74.06
45793;BME280;31495;42.740;22.908;2022-11-20T01:56:55;92373.03;;;14.40;74.38
45793;BME280;31495;42.740;22.908;2022-11-20T01:57:57;92368.06;;;14.38;74.13
45793;BME280;31495;42.740;22.908;2022-11-20T01:58:59;92367.00;;;14.34;74.29
45793;BME280;31495;42.740;22.908;2022-11-20T02:00:06;92375.41;;;14.46;73.72
45793;BME280;31495;42.740;22.908;2022-11-20T02:01:05;92380.63;;;14.51;73.81
45793;BME280;31495;42.740;22.908;2022-11-20T02:02:05;92371.78;;;14.52;73.71
45793;BME280;31495;42.740;22.908;2022-11-20T02:03:08;92375.69;;;14.55;73.83
45793;BME280;31495;42.740;22.908;2022-11-20T02:04:09;92377.53;;;14.55;74.06
45793;BME280;31495;42.740;22.908;2022-11-20T02:06:50;92373.06;;;14.50;73.86
45793;BME280;31495;42.740;22.908;2022-11-20T02:07:52;92377.59;;;14.60;73.33
45793;BME280;31495;42.740;22.908;2022-11-20T02:08:54;92369.78;;;14.60;73.26
45793;BME280;31495;42.740;22.908;2022-11-20T02:09:53;92374.44;;;14.58;73.67
45793;BME280;31495;42.740;22.908;2022-11-20T02:10:53;92384.78;;;14.52;73.89
45793;BME280;31495;42.740;22.908;2022-11-20T02:11:53;92370.44;;;14.45;74.06
45793;BME280;31495;42.740;22.908;2022-11-20T02:12:54;92385.09;;;14.56;73.93
45793;BME280;31495;42.740;22.908;2022-11-20T02:14:13;92376.44;;;14.45;73.77
45793;BME280;31495;42.740;22.908;2022-11-20T02:15:13;92394.69;;;14.56;73.84
45793;BME280;31495;42.740;22.908;2022-11-20T02:17:14;92367.63;;;14.51;73.68
45793;BME280;31495;42.740;22.908;2022-11-20T02:18:16;92378.53;;;14.48;73.94
45793;BME280;31495;42.740;22.908;2022-11-20T02:19:36;92384.25;;;14.50;73.41
45793;BME280;31495;42.740;22.908;2022-11-20T02:20:36;92394.75;;;14.61;73.17
45793;BME280;31495;42.740;22.908;2022-11-20T02:22:45;92396.06;;;14.63;73.39
45793;BME280;31495;42.740;22.908;2022-11-20T02:24:58;92383.22;;;14.51;73.23
45793;BME280;31495;42.740;22.908;2022-11-20T02:26:02;92391.91;;;14.62;73.76
45793;BME280;31495;42.740;22.908;2022-11-20T02:27:07;92384.78;;;14.52;73.60
45793;BME280;31495;42.740;22.908;2022-11-20T02:28:08;92379.56;;;14.52;73.08
45793;BME280;31495;42.740;22.908;2022-11-20T02:29:08;92399.41;;;14.59;73.01
45793;BME280;31495;42.740;22.908;2022-11-20T02:30:08;92394.41;;;14.52;73.12
45793;BME280;31495;42.740;22.908;2022-11-20T02:31:09;92364.91;;;14.36;72.96
45793;BME280;31495;42.740;22.908;2022-11-20T02:32:32;92412.47;;;14.64;73.13
45793;BME280;31495;42.740;22.908;2022-11-20T02:33:32;92409.88;;;14.64;73.12
45793;BME280;31495;42.740;22.908;2022-11-20T02:34:32;92414.06;;;14.65;73.18
45793;BME280;31495;42.740;22.908;2022-11-20T02:36:32;92430.41;;;14.60;72.77
45793;BME280;31495;42.740;22.908;2022-11-20T02:37:34;92418.19;;;14.61;72.26
45793;BME280;31495;42.740;22.908;2022-11-20T02:38:35;92425.00;;;14.67;72.74
45793;BME280;31495;42.740;22.908;2022-11-20T02:39:35;92423.16;;;14.67;72.76
45793;BME280;31495;42.740;22.908;2022-11-20T02:40:34;92391.81;;;14.52;71.29
45793;BME280;31495;42.740;22.908;2022-11-20T02:41:37;92406.75;;;14.62;69.82
45793;BME280;31495;42.740;22.908;2022-11-20T02:42:37;92387.94;;;14.55;70.65
45793;BME280;31495;42.740;22.908;2022-11-20T02:43:37;92391.56;;;14.53;68.94
45793;BME280;31495;42.740;22.908;2022-11-20T02:44:36;92391.06;;;14.57;69.82
45793;BME280;31495;42.740;22.908;2022-11-20T02:45:36;92398.19;;;14.66;69.38
45793;BME280;31495;42.740;22.908;2022-11-20T02:46:36;92371.69;;;14.37;68.77
45793;BME280;31495;42.740;22.908;2022-11-20T02:47:35;92396.50;;;14.50;68.51
45793;BME280;31495;42.740;22.908;2022-11-20T02:48:35;92425.75;;;14.62;68.57
45793;BME280;31495;42.740;22.908;2022-11-20T02:49:35;92409.66;;;14.70;68.45
45793;BME280;31495;42.740;22.908;2022-11-20T02:50:38;92391.81;;;14.52;68.75
45793;BME280;31495;42.740;22.908;2022-11-20T02:51:39;92424.47;;;14.65;67.53
45793;BME280;31495;42.740;22.908;2022-11-20T02:52:38;92428.09;;;14.64;67.92
45793;BME280;31495;42.740;22.908;2022-11-20T02:53:37;92416.38;;;14.61;67.37
45793;BME280;31495;42.740;22.908;2022-11-20T02:54:37;92419.78;;;14.67;67.38
45793;BME280;31495;42.740;22.908;2022-11-20T02:55:37;92427.13;;;14.75;67.06
45793;BME280;31495;42.740;22.908;2022-11-20T02:56:38;92442.84;;;14.91;66.20
45793;BME280;31495;42.740;22.908;2022-11-20T02:57:38;92449.66;;;15.02;65.86
45793;BME280;31495;42.740;22.908;2022-11-20T02:58:37;92445.25;;;15.02;65.72
45793;BME280;31495;42.740;22.908;2022-11-20T02:59:37;92428.19;;;14.79;66.06
45793;BME280;31495;42.740;22.908;2022-11-20T03:00:36;92434.44;;;14.83;66.01
45793;BME280;31495;42.740;22.908;2022-11-20T03:01:36;92453.81;;;14.98;65.98
45793;BME280;31495;42.740;22.908;2022-11-20T03:02:35;92422.75;;;14.86;66.29
45793;BME280;31495;42.740;22.908;2022-11-20T03:03:34;92436.06;;;14.89;66.31
45793;BME280;31495;42.740;22.908;2022-11-20T03:04:34;92437.88;;;14.89;65.67
45793;BME280;31495;42.740;22.908;2022-11-20T03:05:34;92443.66;;;15.01;65.44
45793;BME280;31495;42.740;22.908;2022-11-20T03:06:33;92413.84;;;14.77;65.77
45793;BME280;31495;42.740;22.908;2022-11-20T03:07:33;92436.31;;;14.88;66.36
45793;BME280;31495;42.740;22.908;2022-11-20T03:08:32;92420.69;;;14.93;65.76
45793;BME280;31495;42.740;22.908;2022-11-20T03:09:31;92439.53;;;15.11;65.73
45793;BME280;31495;42.740;22.908;2022-11-20T03:10:31;92408.44;;;14.88;65.27
45793;BME280;31495;42.740;22.908;2022-11-20T03:11:30;92437.44;;;15.07;65.44
45793;BME280;31495;42.740;22.908;2022-11-20T03:12:30;92415.25;;;15.00;65.64
45793;BME280;31495;42.740;22.908;2022-11-20T03:13:29;92451.25;;;15.13;65.46
45793;BME280;31495;42.740;22.908;2022-11-20T03:14:29;92436.59;;;14.97;65.62
45793;BME280;31495;42.740;22.908;2022-11-20T03:15:28;92446.84;;;15.09;65.15
45793;BME280;31495;42.740;22.908;2022-11-20T03:16:27;92454.38;;;15.10;65.82
45793;BME280;31495;42.740;22.908;2022-11-20T03:17:27;92434.59;;;15.09;65.55
45793;BME280;31495;42.740;22.908;2022-11-20T03:18:28;92445.00;;;15.09;66.19
45793;BME280;31495;42.740;22.908;2022-11-20T03:19:28;92446.84;;;15.14;65.89
45793;BME280;31495;42.740;22.908;2022-11-20T03:20:27;92432.69;;;14.94;66.16
45793;BME280;31495;42.740;22.908;2022-11-20T03:21:26;92434.25;;;14.95;66.41
45793;BME280;31495;42.740;22.908;2022-11-20T03:22:29;92432.09;;;14.82;66.83
45793;BME280;31495;42.740;22.908;2022-11-20T03:23:30;92453.06;;;15.07;66.65
45793;BME280;31495;42.740;22.908;2022-11-20T03:24:30;92458.03;;;15.09;66.83
45793;BME280;31495;42.740;22.908;2022-11-20T03:25:29;92453.84;;;15.08;67.18
45793;BME280;31495;42.740;22.908;2022-11-20T03:26:29;92459.28;;;15.01;66.47
45793;BME280;31495;42.740;22.908;2022-11-20T03:27:32;92457.47;;;15.02;66.82
45793;BME280;31495;42.740;22.908;2022-11-20T03:28:31;92450.97;;;15.04;66.96
45793;BME280;31495;42.740;22.908;2022-11-20T03:29:31;92453.06;;;15.02;67.56
45793;BME280;31495;42.740;22.908;2022-11-20T03:30:31;92450.97;;;15.04;66.98
45793;BME280;31495;42.740;22.908;2022-11-20T03:31:37;92443.38;;;14.98;66.96
45793;BME280;31495;42.740;22.908;2022-11-20T03:32:37;92458.00;;;14.99;67.21
45793;BME280;31495;42.740;22.908;2022-11-20T03:33:37;92449.38;;;14.98;67.61
45793;BME280;31495;42.740;22.908;2022-11-20T03:34:36;92446.53;;;15.00;67.26
45793;BME280;31495;42.740;22.908;2022-11-20T03:35:36;92436.56;;;14.86;66.97
45793;BME280;31495;42.740;22.908;2022-11-20T03:36:38;92445.72;;;14.94;67.58
45793;BME280;31495;42.740;22.908;2022-11-20T03:37:38;92438.91;;;14.88;67.04
45793;BME280;31495;42.740;22.908;2022-11-20T03:38:37;92444.38;;;14.86;67.47
45793;BME280;31495;42.740;22.908;2022-11-20T03:39:37;92430.78;;;14.74;67.33
45793;BME280;31495;42.740;22.908;2022-11-20T03:40:36;92447.22;;;14.85;67.61
45793;BME280;31495;42.740;22.908;2022-11-20T03:41:39;92445.16;;;14.87;67.56
45793;BME280;31495;42.740;22.908;2022-11-20T03:42:39;92419.53;;;14.68;67.00
45793;BME280;31495;42.740;22.908;2022-11-20T03:43:48;92449.81;;;14.85;67.43
45793;BME280;31495;42.740;22.908;2022-11-20T03:44:48;92447.47;;;14.83;67.66
45793;BME280;31495;42.740;22.908;2022-11-20T03:45:48;92431.84;;;14.83;67.41
45793;BME280;31495;42.740;22.908;2022-11-20T03:46:47;92426.84;;;14.72;68.20
45793;BME280;31495;42.740;22.908;2022-11-20T03:47:46;92437.78;;;14.74;67.59
45793;BME280;31495;42.740;22.908;2022-11-20T03:48:46;92423.38;;;14.61;67.58
45793;BME280;31495;42.740;22.908;2022-11-20T03:49:46;92423.72;;;14.69;67.62
45793;BME280;31495;42.740;22.908;2022-11-20T03:50:45;92413.06;;;14.71;67.86
45793;BME280;31495;42.740;22.908;2022-11-20T03:51:46;92393.22;;;14.65;67.70
45793;BME280;31495;42.740;22.908;2022-11-20T03:52:46;92395.31;;;14.63;67.83
45793;BME280;31495;42.740;22.908;2022-11-20T03:53:46;92417.75;;;14.74;67.66
45793;BME280;31495;42.740;22.908;2022-11-20T03:54:46;92409.09;;;14.63;67.23
45793;BME280;31495;42.740;22.908;2022-11-20T03:55:50;92415.34;;;14.67;67.79
45793;BME280;31495;42.740;22.908;2022-11-20T03:56:50;92416.97;;;14.74;67.81
45793;BME280;31495;42.740;22.908;2022-11-20T03:57:50;92410.94;;;14.68;68.07
45793;BME280;31495;42.740;22.908;2022-11-20T03:58:50;92412.22;;;14.65;68.14
45793;BME280;31495;42.740;22.908;2022-11-20T03:59:50;92388.44;;;14.51;68.07
45793;BME280;31495;42.740;22.908;2022-11-20T04:00:49;92400.47;;;14.58;67.89
45793;BME280;31495;42.740;22.908;2022-11-20T04:01:49;92416.69;;;14.70;67.93
45793;BME280;31495;42.740;22.908;2022-11-20T04:02:48;92400.22;;;14.59;67.92
45793;BME280;31495;42.740;22.908;2022-11-20T04:03:48;92408.34;;;14.68;67.93
45793;BME280;31495;42.740;22.908;2022-11-20T04:04:48;92412.75;;;14.67;68.24
45793;BME280;31495;42.740;22.908;2022-11-20T04:05:47;92409.09;;;14.63;68.07
45793;BME280;31495;42.740;22.908;2022-11-20T04:06:47;92404.66;;;14.64;68.14
45793;BME280;31495;42.740;22.908;2022-11-20T04:07:46;92406.78;;;14.67;68.09
45793;BME280;31495;42.740;22.908;2022-11-20T04:08:46;92405.16;;;14.61;68.18
45793;BME280;31495;42.740;22.908;2022-11-20T04:09:46;92407.47;;;14.57;68.49
45793;BME280;31495;42.740;22.908;2022-11-20T04:10:46;92406.69;;;14.57;68.38
45793;BME280;31495;42.740;22.908;2022-11-20T04:11:45;92386.84;;;14.45;68.54
45793;BME280;31495;42.740;22.908;2022-11-20T04:12:45;92387.59;;;14.41;68.74
45793;BME280;31495;42.740;22.908;2022-11-20T04:13:50;92386.97;;;14.23;68.74
45793;BME280;31495;42.740;22.908;2022-11-20T04:14:50;92409.66;;;14.33;69.27
45793;BME280;31495;42.740;22.908;2022-11-20T04:15:50;92416.69;;;14.32;69.92
45793;BME280;31495;42.740;22.908;2022-11-20T04:16:49;92402.31;;;14.25;69.79
45793;BME280;31495;42.740;22.908;2022-11-20T04:17:48;92398.88;;;14.14;69.77
45793;BME280;31495;42.740;22.908;2022-11-20T04:18:54;92411.63;;;14.15;70.16
45793;BME280;31495;42.740;22.908;2022-11-20T04:19:54;92426.72;;;14.13;71.18
45793;BME280;31495;42.740;22.908;2022-11-20T04:20:53;92420.66;;;14.08;71.94
45793;BME280;31495;42.740;22.908;2022-11-20T04:21:53;92417.25;;;14.02;71.89
45793;BME280;31495;42.740;22.908;2022-11-20T04:22:53;92429.81;;;14.10;72.31
45793;BME280;31495;42.740;22.908;2022-11-20T04:23:54;92415.34;;;13.92;72.53
45793;BME280;31495;42.740;22.908;2022-11-20T04:24:54;92416.56;;;13.85;73.04
45793;BME280;31495;42.740;22.908;2022-11-20T04:25:53;92438.53;;;13.99;73.12
45793;BME280;31495;42.740;22.908;2022-11-20T04:26:53;92423.69;;;13.94;73.30
45793;BME280;31495;42.740;22.908;2022-11-20T04:27:53;92441.19;;;14.04;73.42
45793;BME280;31495;42.740;22.908;2022-11-20T04:28:53;92441.19;;;14.04;73.38
45793;BME280;31495;42.740;22.908;2022-11-20T04:29:52;92442.22;;;14.03;73.25
45793;BME280;31495;42.740;22.908;2022-11-20T04:30:52;92436.75;;;14.05;73.12
45793;BME280;31495;42.740;22.908;2022-11-20T04:31:51;92424.56;;;14.05;73.19
45793;BME280;31495;42.740;22.908;2022-11-20T04:32:51;92428.72;;;14.06;73.09
45793;BME280;31495;42.740;22.908;2022-11-20T04:33:51;92437.34;;;14.12;73.08
45793;BME280;31495;42.740;22.908;2022-11-20T04:34:51;92411.94;;;13.92;73.41
45793;BME280;31495;42.740;22.908;2022-11-20T04:35:51;92443.81;;;14.09;73.15
45793;BME280;31495;42.740;22.908;2022-11-20T04:36:50;92444.06;;;14.08;73.16
45793;BME280;31495;42.740;22.908;2022-11-20T04:37:52;92419.50;;;13.93;73.18
45793;BME280;31495;42.740;22.908;2022-11-20T04:38:54;92438.34;;;14.06;73.38
45793;BME280;31495;42.740;22.908;2022-11-20T04:39:54;92440.69;;;14.07;73.42
45793;BME280;31495;42.740;22.908;2022-11-20T04:40:58;92425.28;;;14.01;72.97
45793;BME280;31495;42.740;22.908;2022-11-20T04:41:57;92436.88;;;14.15;73.09
45793;BME280;31495;42.740;22.908;2022-11-20T04:43:15;92429.75;;;14.05;73.11
45793;BME280;31495;42.740;22.908;2022-11-20T04:44:15;92445.16;;;14.12;72.92
45793;BME280;31495;42.740;22.908;2022-11-20T04:45:15;92438.13;;;14.12;72.40
45793;BME280;31495;42.740;22.908;2022-11-20T04:46:15;92435.00;;;14.10;72.49
45793;BME280;31495;42.740;22.908;2022-11-20T04:47:14;92436.59;;;14.16;72.55
45793;BME280;31495;42.740;22.908;2022-11-20T04:48:14;92433.69;;;14.13;72.42
45793;BME280;31495;42.740;22.908;2022-11-20T04:49:13;92418.03;;;14.03;72.64
45793;BME280;31495;42.740;22.908;2022-11-20T04:50:13;92436.34;;;14.18;72.81
45793;BME280;31495;42.740;22.908;2022-11-20T04:51:13;92420.91;;;14.06;72.67
45793;BME280;31495;42.740;22.908;2022-11-20T04:52:13;92417.31;;;14.12;72.46
45793;BME280;31495;42.740;22.908;2022-11-20T04:53:14;92408.75;;;14.12;72.55
45793;BME280;31495;42.740;22.908;2022-11-20T04:54:14;92406.88;;;14.07;72.43
45793;BME280;31495;42.740;22.908;2022-11-20T04:55:13;92421.03;;;14.22;72.67
45793;BME280;31495;42.740;22.908;2022-11-20T04:56:13;92412.13;;;14.12;72.60
45793;BME280;31495;42.740;22.908;2022-11-20T04:57:13;92411.88;;;14.14;72.15
45793;BME280;31495;42.740;22.908;2022-11-20T04:58:14;92420.44;;;14.14;72.59
45793;BME280;31495;42.740;22.908;2022-11-20T04:59:13;92402.16;;;14.04;72.46
45793;BME280;31495;42.740;22.908;2022-11-20T05:00:13;92405.59;;;14.10;72.47
45793;BME280;31495;42.740;22.908;2022-11-20T05:01:21;92412.38;;;14.11;72.76
45793;BME280;31495;42.740;22.908;2022-11-20T05:02:21;92395.09;;;14.00;72.95
45793;BME280;31495;42.740;22.908;2022-11-20T05:03:21;92418.91;;;14.13;73.00
45793;BME280;31495;42.740;22.908;2022-11-20T05:04:20;92404.50;;;14.01;72.87
45793;BME280;31495;42.740;22.908;2022-11-20T05:05:20;92419.34;;;14.05;73.10
45793;BME280;31495;42.740;22.908;2022-11-20T05:06:22;92433.47;;;14.14;73.08
45793;BME280;31495;42.740;22.908;2022-11-20T05:07:21;92410.72;;;14.00;72.80
45793;BME280;31495;42.740;22.908;2022-11-20T05:08:21;92437.03;;;14.08;73.09
45793;BME280;31495;42.740;22.908;2022-11-20T05:09:20;92432.91;;;14.07;73.19
45793;BME280;31495;42.740;22.908;2022-11-20T05:10:20;92429.00;;;14.10;73.02
45793;BME280;31495;42.740;22.908;2022-11-20T05:11:20;92418.31;;;14.06;73.25
45793;BME280;31495;42.740;22.908;2022-11-20T05:12:20;92432.41;;;14.10;72.83
45793;BME280;31495;42.740;22.908;2022-11-20T05:13:19;92435.50;;;14.07;73.02
45793;BME280;31495;42.740;22.908;2022-11-20T05:14:19;92414.00;;;13.90;73.50
45793;BME280;31495;42.740;22.908;2022-11-20T05:15:18;92446.91;;;14.06;73.16
45793;BME280;31495;42.740;22.908;2022-11-20T05:16:22;92435.75;;;14.06;73.33
45793;BME280;31495;42.740;22.908;2022-11-20T05:17:22;92434.44;;;14.08;73.61
45793;BME280;31495;42.740;22.908;2022-11-20T05:18:21;92413.28;;;13.94;73.57
45793;BME280;31495;42.740;22.908;2022-11-20T05:19:21;92401.94;;;13.78;73.70
45793;BME280;31495;42.740;22.908;2022-11-20T05:20:21;92426.50;;;13.88;73.75
45793;BME280;31495;42.740;22.908;2022-11-20T05:21:21;92418.50;;;14.00;73.13
45793;BME280;31495;42.740;22.908;2022-11-20T05:22:21;92409.88;;;13.89;73.75
45793;BME280;31495;42.740;22.908;2022-11-20T05:23:20;92425.53;;;13.99;73.54
45793;BME280;31495;42.740;22.908;2022-11-20T05:24:20;92432.25;;;13.95;74.20
45793;BME280;31495;42.740;22.908;2022-11-20T05:25:19;92434.66;;;14.02;73.47
45793;BME280;31495;42.740;22.908;2022-11-20T05:26:20;92412.50;;;13.94;73.27
45793;BME280;31495;42.740;22.908;2022-11-20T05:27:23;92430.25;;;14.02;73.46